Ana Sayfa
METAR-TAF:

METAR-TAF

Havaalanları :

N'Djamena, Çad

Enlem: 12-08N, Boylam: 015-02E, yükseklik: 295 m

Güncel hava durumu gözlemi

Rapor saat 09:00 UTC de 33 dakika önce yapıldı.
Rüzgar kuzeydan 13 kt, kuzey ve doğu/kuzeydoğu arasında değişken
Sıcaklık 38°C
Nem 8%
Basınç 1010 hPa
Görüş mesafesi: 6000 m

METAR: FTTJ 280900Z 36013KT 360V060 6000 NSC 38/M02 Q1010 NOSIG

Saat: 10:33 (09:33 UTC)

Tahmin

Rapor saat 05:15 UTC de 4 saat ve 18 dakika önce yapıldı.
Ayın 28'si saat 06 UTC'den ayın 29'si saat 12 UTC'ye kadar geçerli Tahmin
Rüzgar kuzey/kuzeydoğudan 9 kt
Görüş mesafesi: 7000 m
Geçici
ayın 28'si saat 15 UTC'den ayın 28'si saat 20 UTC'ye kadar
Görüş mesafesi: 4000 m
yaygın toz
Geçici
ayın 28'si saat 23 UTC'den ayın 29'si saat 06 UTC'ye kadar
Görüş mesafesi: 4000 m
yaygın toz

TAF: FTTJ 280515Z 2806/2912 02009KT 7000 NSC TEMPO 2815/2820 4000 DU TEMPO 2823/2906 4000 DU

4.000'den fazla havaalanı için hava durumu gözlemleri ve tahminleri (METAR ve TAF raporları).

Kullanılabilir istasyonlar harita üzerinde sarı ve kırmızı noktalarla gösterilir.

İstasyonun adını görmek için fareyi noktanın üzerinde gezdirin.

Sonrasında hava gözlem ve tahminlerini görmek için tıklayın.

Haritayı değiştirmek için: yaklaştırmak için siyah artı işaretli yeşil düğmeye ve uzaklaştırmak için de eksi işaretli düğmeye hızla tıklayın; bitişik haritalar için yeşil okları kullanın.


METAR-TAF: